Patten, Maine
Current Conditions -  °F | °C
As of 4:53 AM on Sunday 26 Oct 2014 (Local Time) from KMLT Reporting Station
Overcast Overcast  
Wind Chill: 43°   Ceiling: 300
Heat Index: 43°   Visibility: 10mi
Dew Point: 42°   Wind: 0mph
Humidity: 97%   Direction: NA
Pressure: 29.38"   Gusts: NA
Location:  45.99°N, 68.45°W
Report Text: KMLT 260853Z AUTO 00000KT 10SM OVC003 06/06 A2938 RMK AO2 RAE15B29E50 SLP956 P0000 60007 T00610056 56016
Loading
Personal Weather Stations






























Interactive Weather Map
Tropical Storm Tracking
New forecast layout! Learn more

10-Day Weather Forecast

Advertisements
Track Severe Weather on mobile